sensor_id;sensor_type;location;lat;lon;timestamp;P1;durP1;ratioP1;P2;durP2;ratioP2
40787;SDS011;26497;52.494;7.546;2023-02-22T00:00:19;90.53;;;23.52;;
40787;SDS011;26497;52.494;7.546;2023-02-22T00:02:54;87.97;;;25.80;;
40787;SDS011;26497;52.494;7.546;2023-02-22T00:05:24;92.25;;;25.00;;
40787;SDS011;26497;52.494;7.546;2023-02-22T00:07:56;96.55;;;25.50;;
40787;SDS011;26497;52.494;7.546;2023-02-22T00:10:25;91.95;;;23.45;;
40787;SDS011;26497;52.494;7.546;2023-02-22T00:12:53;94.47;;;26.55;;
40787;SDS011;26497;52.494;7.546;2023-02-22T00:15:22;109.35;;;25.88;;
40787;SDS011;26497;52.494;7.546;2023-02-22T00:17:53;90.35;;;25.30;;
40787;SDS011;26497;52.494;7.546;2023-02-22T00:20:21;112.45;;;26.98;;
40787;SDS011;26497;52.494;7.546;2023-02-22T00:22:49;107.78;;;27.23;;
40787;SDS011;26497;52.494;7.546;2023-02-22T00:25:17;100.60;;;25.70;;
40787;SDS011;26497;52.494;7.546;2023-02-22T00:27:46;74.65;;;24.23;;
40787;SDS011;26497;52.494;7.546;2023-02-22T00:30:16;97.65;;;25.25;;
40787;SDS011;26497;52.494;7.546;2023-02-22T00:32:46;84.18;;;21.55;;
40787;SDS011;26497;52.494;7.546;2023-02-22T00:35:16;106.55;;;24.48;;
40787;SDS011;26497;52.494;7.546;2023-02-22T00:37:47;104.60;;;27.90;;
40787;SDS011;26497;52.494;7.546;2023-02-22T00:40:15;110.07;;;26.45;;
40787;SDS011;26497;52.494;7.546;2023-02-22T00:42:46;116.38;;;25.73;;
40787;SDS011;26497;52.494;7.546;2023-02-22T00:45:14;119.80;;;28.38;;
40787;SDS011;26497;52.494;7.546;2023-02-22T00:47:44;93.82;;;23.60;;
40787;SDS011;26497;52.494;7.546;2023-02-22T00:50:12;104.05;;;25.67;;
40787;SDS011;26497;52.494;7.546;2023-02-22T00:52:41;90.57;;;27.17;;
40787;SDS011;26497;52.494;7.546;2023-02-22T00:55:09;85.60;;;24.98;;
40787;SDS011;26497;52.494;7.546;2023-02-22T00:57:41;79.10;;;24.75;;
40787;SDS011;26497;52.494;7.546;2023-02-22T01:00:13;109.15;;;26.27;;
40787;SDS011;26497;52.494;7.546;2023-02-22T01:02:44;103.20;;;27.33;;
40787;SDS011;26497;52.494;7.546;2023-02-22T01:05:15;107.40;;;24.83;;
40787;SDS011;26497;52.494;7.546;2023-02-22T01:07:46;102.43;;;24.98;;
40787;SDS011;26497;52.494;7.546;2023-02-22T01:10:14;113.05;;;25.77;;
40787;SDS011;26497;52.494;7.546;2023-02-22T01:12:43;111.97;;;27.65;;
40787;SDS011;26497;52.494;7.546;2023-02-22T01:15:11;96.50;;;26.42;;
40787;SDS011;26497;52.494;7.546;2023-02-22T01:17:39;109.70;;;26.27;;
40787;SDS011;26497;52.494;7.546;2023-02-22T01:20:08;101.90;;;25.95;;
40787;SDS011;26497;52.494;7.546;2023-02-22T01:22:37;106.57;;;27.40;;
40787;SDS011;26497;52.494;7.546;2023-02-22T01:25:06;88.90;;;23.17;;
40787;SDS011;26497;52.494;7.546;2023-02-22T01:27:43;109.05;;;25.77;;
40787;SDS011;26497;52.494;7.546;2023-02-22T01:30:13;102.65;;;25.30;;
40787;SDS011;26497;52.494;7.546;2023-02-22T01:32:40;92.78;;;25.45;;
40787;SDS011;26497;52.494;7.546;2023-02-22T01:35:10;114.20;;;26.98;;
40787;SDS011;26497;52.494;7.546;2023-02-22T01:37:39;109.85;;;26.20;;
40787;SDS011;26497;52.494;7.546;2023-02-22T01:40:10;103.07;;;25.92;;
40787;SDS011;26497;52.494;7.546;2023-02-22T01:42:46;110.03;;;26.50;;
40787;SDS011;26497;52.494;7.546;2023-02-22T01:48:17;100.10;;;23.00;;
40787;SDS011;26497;52.494;7.546;2023-02-22T01:50:53;97.10;;;23.65;;
40787;SDS011;26497;52.494;7.546;2023-02-22T01:53:23;95.18;;;22.27;;
40787;SDS011;26497;52.494;7.546;2023-02-22T01:55:56;104.45;;;24.23;;
40787;SDS011;26497;52.494;7.546;2023-02-22T01:58:24;92.75;;;23.02;;
40787;SDS011;26497;52.494;7.546;2023-02-22T02:00:53;96.03;;;23.13;;
40787;SDS011;26497;52.494;7.546;2023-02-22T02:03:23;93.90;;;22.02;;
40787;SDS011;26497;52.494;7.546;2023-02-22T02:05:54;108.35;;;22.35;;
40787;SDS011;26497;52.494;7.546;2023-02-22T02:08:29;99.50;;;25.48;;
40787;SDS011;26497;52.494;7.546;2023-02-22T02:11:04;99.30;;;23.20;;
40787;SDS011;26497;52.494;7.546;2023-02-22T02:13:33;93.93;;;24.13;;
40787;SDS011;26497;52.494;7.546;2023-02-22T02:16:00;107.68;;;24.48;;
40787;SDS011;26497;52.494;7.546;2023-02-22T02:18:28;110.47;;;23.98;;
40787;SDS011;26497;52.494;7.546;2023-02-22T02:21:09;108.65;;;24.58;;
40787;SDS011;26497;52.494;7.546;2023-02-22T02:24:29;80.80;;;21.13;;
40787;SDS011;26497;52.494;7.546;2023-02-22T02:27:38;113.40;;;22.88;;
40787;SDS011;26497;52.494;7.546;2023-02-22T02:33:23;111.07;;;22.85;;
40787;SDS011;26497;52.494;7.546;2023-02-22T02:35:59;108.57;;;24.98;;
40787;SDS011;26497;52.494;7.546;2023-02-22T02:38:36;121.22;;;24.17;;
40787;SDS011;26497;52.494;7.546;2023-02-22T02:41:11;104.45;;;24.30;;
40787;SDS011;26497;52.494;7.546;2023-02-22T02:43:46;100.85;;;23.63;;
40787;SDS011;26497;52.494;7.546;2023-02-22T02:46:24;106.50;;;24.35;;
40787;SDS011;26497;52.494;7.546;2023-02-22T02:48:59;107.95;;;24.48;;
40787;SDS011;26497;52.494;7.546;2023-02-22T02:51:33;109.80;;;25.15;;
40787;SDS011;26497;52.494;7.546;2023-02-22T02:54:03;112.13;;;24.52;;
40787;SDS011;26497;52.494;7.546;2023-02-22T02:56:33;128.65;;;28.17;;
40787;SDS011;26497;52.494;7.546;2023-02-22T02:59:00;134.95;;;27.10;;
40787;SDS011;26497;52.494;7.546;2023-02-22T03:01:33;125.18;;;25.10;;
40787;SDS011;26497;52.494;7.546;2023-02-22T03:04:20;121.28;;;23.80;;
40787;SDS011;26497;52.494;7.546;2023-02-22T03:10:04;142.43;;;24.85;;
40787;SDS011;26497;52.494;7.546;2023-02-22T03:12:50;143.87;;;26.17;;
40787;SDS011;26497;52.494;7.546;2023-02-22T03:18:06;128.32;;;26.65;;
40787;SDS011;26497;52.494;7.546;2023-02-22T03:20:43;100.57;;;24.67;;
40787;SDS011;26497;52.494;7.546;2023-02-22T03:23:18;122.32;;;26.48;;
40787;SDS011;26497;52.494;7.546;2023-02-22T03:25:50;116.60;;;25.15;;
40787;SDS011;26497;52.494;7.546;2023-02-22T03:28:23;138.93;;;31.42;;
40787;SDS011;26497;52.494;7.546;2023-02-22T03:30:53;159.57;;;31.13;;
40787;SDS011;26497;52.494;7.546;2023-02-22T03:33:29;155.70;;;32.80;;
40787;SDS011;26497;52.494;7.546;2023-02-22T03:36:08;129.15;;;24.88;;
40787;SDS011;26497;52.494;7.546;2023-02-22T03:38:41;120.75;;;29.13;;
40787;SDS011;26497;52.494;7.546;2023-02-22T03:41:11;128.07;;;26.33;;
40787;SDS011;26497;52.494;7.546;2023-02-22T03:43:42;191.63;;;32.53;;
40787;SDS011;26497;52.494;7.546;2023-02-22T03:46:13;137.45;;;29.17;;
40787;SDS011;26497;52.494;7.546;2023-02-22T03:48:44;158.23;;;31.85;;
40787;SDS011;26497;52.494;7.546;2023-02-22T03:51:19;147.18;;;28.77;;
40787;SDS011;26497;52.494;7.546;2023-02-22T03:53:47;158.23;;;30.88;;
40787;SDS011;26497;52.494;7.546;2023-02-22T03:56:17;176.77;;;32.30;;
40787;SDS011;26497;52.494;7.546;2023-02-22T03:58:50;145.75;;;28.25;;
40787;SDS011;26497;52.494;7.546;2023-02-22T04:01:18;142.52;;;28.45;;
40787;SDS011;26497;52.494;7.546;2023-02-22T04:03:47;156.52;;;27.13;;
40787;SDS011;26497;52.494;7.546;2023-02-22T04:06:14;115.50;;;23.05;;
40787;SDS011;26497;52.494;7.546;2023-02-22T04:08:43;149.90;;;26.95;;
40787;SDS011;26497;52.494;7.546;2023-02-22T04:11:10;162.63;;;26.63;;
40787;SDS011;26497;52.494;7.546;2023-02-22T04:13:37;153.50;;;28.58;;
40787;SDS011;26497;52.494;7.546;2023-02-22T04:16:04;157.93;;;28.48;;
40787;SDS011;26497;52.494;7.546;2023-02-22T04:18:32;167.10;;;28.83;;
40787;SDS011;26497;52.494;7.546;2023-02-22T04:20:58;193.25;;;32.65;;
40787;SDS011;26497;52.494;7.546;2023-02-22T04:23:25;212.57;;;30.83;;
40787;SDS011;26497;52.494;7.546;2023-02-22T04:25:54;215.93;;;34.60;;
40787;SDS011;26497;52.494;7.546;2023-02-22T04:28:21;165.43;;;26.13;;
40787;SDS011;26497;52.494;7.546;2023-02-22T04:30:48;124.40;;;22.58;;
40787;SDS011;26497;52.494;7.546;2023-02-22T04:33:15;121.80;;;23.42;;
40787;SDS011;26497;52.494;7.546;2023-02-22T04:35:42;102.32;;;21.95;;
40787;SDS011;26497;52.494;7.546;2023-02-22T04:38:09;165.60;;;29.17;;
40787;SDS011;26497;52.494;7.546;2023-02-22T04:40:36;158.18;;;30.15;;
40787;SDS011;26497;52.494;7.546;2023-02-22T04:43:05;185.93;;;32.58;;
40787;SDS011;26497;52.494;7.546;2023-02-22T04:45:32;160.93;;;27.40;;
40787;SDS011;26497;52.494;7.546;2023-02-22T04:48:00;159.63;;;30.02;;
40787;SDS011;26497;52.494;7.546;2023-02-22T04:50:27;184.48;;;29.55;;
40787;SDS011;26497;52.494;7.546;2023-02-22T04:52:54;157.48;;;30.17;;
40787;SDS011;26497;52.494;7.546;2023-02-22T04:55:21;166.43;;;30.48;;
40787;SDS011;26497;52.494;7.546;2023-02-22T04:57:48;175.18;;;32.33;;
40787;SDS011;26497;52.494;7.546;2023-02-22T05:00:17;174.98;;;31.60;;
40787;SDS011;26497;52.494;7.546;2023-02-22T05:02:45;185.48;;;33.90;;
40787;SDS011;26497;52.494;7.546;2023-02-22T05:05:13;184.98;;;34.13;;
40787;SDS011;26497;52.494;7.546;2023-02-22T05:07:41;172.80;;;32.55;;
40787;SDS011;26497;52.494;7.546;2023-02-22T05:10:08;180.98;;;32.58;;
40787;SDS011;26497;52.494;7.546;2023-02-22T05:12:37;180.13;;;31.70;;
40787;SDS011;26497;52.494;7.546;2023-02-22T05:15:05;171.30;;;27.33;;
40787;SDS011;26497;52.494;7.546;2023-02-22T05:17:35;160.40;;;32.78;;
40787;SDS011;26497;52.494;7.546;2023-02-22T05:20:02;208.30;;;34.97;;
40787;SDS011;26497;52.494;7.546;2023-02-22T05:22:32;197.82;;;34.30;;
40787;SDS011;26497;52.494;7.546;2023-02-22T05:25:00;209.25;;;33.10;;
40787;SDS011;26497;52.494;7.546;2023-02-22T05:27:27;189.00;;;33.88;;
40787;SDS011;26497;52.494;7.546;2023-02-22T05:29:54;187.32;;;35.20;;
40787;SDS011;26497;52.494;7.546;2023-02-22T05:32:21;239.80;;;38.60;;
40787;SDS011;26497;52.494;7.546;2023-02-22T05:34:50;231.27;;;39.65;;
40787;SDS011;26497;52.494;7.546;2023-02-22T05:37:17;223.23;;;38.17;;
40787;SDS011;26497;52.494;7.546;2023-02-22T05:39:44;232.15;;;38.25;;
40787;SDS011;26497;52.494;7.546;2023-02-22T05:42:11;200.93;;;38.28;;
40787;SDS011;26497;52.494;7.546;2023-02-22T05:44:38;214.27;;;40.85;;
40787;SDS011;26497;52.494;7.546;2023-02-22T05:47:05;227.27;;;39.67;;
40787;SDS011;26497;52.494;7.546;2023-02-22T05:49:32;200.60;;;41.00;;
40787;SDS011;26497;52.494;7.546;2023-02-22T05:52:00;190.13;;;41.10;;
40787;SDS011;26497;52.494;7.546;2023-02-22T05:54:27;210.57;;;39.78;;
40787;SDS011;26497;52.494;7.546;2023-02-22T05:56:54;241.55;;;42.75;;
40787;SDS011;26497;52.494;7.546;2023-02-22T05:59:21;219.20;;;38.20;;
40787;SDS011;26497;52.494;7.546;2023-02-22T06:01:48;211.65;;;38.60;;
40787;SDS011;26497;52.494;7.546;2023-02-22T06:04:15;221.13;;;40.47;;
40787;SDS011;26497;52.494;7.546;2023-02-22T06:06:42;218.43;;;40.47;;
40787;SDS011;26497;52.494;7.546;2023-02-22T06:09:11;192.88;;;37.25;;
40787;SDS011;26497;52.494;7.546;2023-02-22T06:11:38;178.60;;;39.70;;
40787;SDS011;26497;52.494;7.546;2023-02-22T06:14:05;219.98;;;38.30;;
40787;SDS011;26497;52.494;7.546;2023-02-22T06:16:32;175.38;;;35.92;;
40787;SDS011;26497;52.494;7.546;2023-02-22T06:18:59;201.48;;;39.03;;
40787;SDS011;26497;52.494;7.546;2023-02-22T06:21:26;177.80;;;37.13;;
40787;SDS011;26497;52.494;7.546;2023-02-22T06:23:53;188.02;;;36.58;;
40787;SDS011;26497;52.494;7.546;2023-02-22T06:26:22;209.10;;;38.67;;
40787;SDS011;26497;52.494;7.546;2023-02-22T06:28:49;182.60;;;36.47;;
40787;SDS011;26497;52.494;7.546;2023-02-22T06:31:16;220.50;;;40.53;;
40787;SDS011;26497;52.494;7.546;2023-02-22T06:33:44;208.20;;;39.90;;
40787;SDS011;26497;52.494;7.546;2023-02-22T06:36:11;200.93;;;36.78;;
40787;SDS011;26497;52.494;7.546;2023-02-22T06:38:38;183.40;;;37.33;;
40787;SDS011;26497;52.494;7.546;2023-02-22T06:41:04;195.85;;;37.25;;
40787;SDS011;26497;52.494;7.546;2023-02-22T06:43:35;184.45;;;38.55;;
40787;SDS011;26497;52.494;7.546;2023-02-22T06:46:01;184.82;;;38.13;;
40787;SDS011;26497;52.494;7.546;2023-02-22T06:48:29;169.40;;;37.20;;
40787;SDS011;26497;52.494;7.546;2023-02-22T06:50:56;177.80;;;39.75;;
40787;SDS011;26497;52.494;7.546;2023-02-22T06:53:23;180.50;;;39.72;;
40787;SDS011;26497;52.494;7.546;2023-02-22T06:55:51;184.88;;;40.65;;
40787;SDS011;26497;52.494;7.546;2023-02-22T06:58:19;195.43;;;39.83;;
40787;SDS011;26497;52.494;7.546;2023-02-22T07:00:48;170.40;;;39.13;;
40787;SDS011;26497;52.494;7.546;2023-02-22T07:03:15;182.15;;;40.20;;
40787;SDS011;26497;52.494;7.546;2023-02-22T07:05:42;173.57;;;42.08;;
40787;SDS011;26497;52.494;7.546;2023-02-22T07:08:09;193.00;;;43.97;;
40787;SDS011;26497;52.494;7.546;2023-02-22T07:10:37;164.57;;;39.15;;
40787;SDS011;26497;52.494;7.546;2023-02-22T07:13:05;154.23;;;36.75;;
40787;SDS011;26497;52.494;7.546;2023-02-22T07:15:33;179.13;;;40.45;;
40787;SDS011;26497;52.494;7.546;2023-02-22T07:18:02;169.15;;;39.60;;
40787;SDS011;26497;52.494;7.546;2023-02-22T07:20:30;158.57;;;41.20;;
40787;SDS011;26497;52.494;7.546;2023-02-22T07:22:57;161.20;;;39.60;;
40787;SDS011;26497;52.494;7.546;2023-02-22T07:25:25;175.32;;;40.97;;
40787;SDS011;26497;52.494;7.546;2023-02-22T07:27:52;198.48;;;44.28;;
40787;SDS011;26497;52.494;7.546;2023-02-22T07:30:20;191.70;;;40.55;;
40787;SDS011;26497;52.494;7.546;2023-02-22T07:32:50;162.73;;;39.10;;
40787;SDS011;26497;52.494;7.546;2023-02-22T07:35:20;136.75;;;37.90;;
40787;SDS011;26497;52.494;7.546;2023-02-22T07:37:50;175.07;;;42.83;;
40787;SDS011;26497;52.494;7.546;2023-02-22T07:40:17;158.35;;;39.20;;
40787;SDS011;26497;52.494;7.546;2023-02-22T07:42:55;161.10;;;39.55;;
40787;SDS011;26497;52.494;7.546;2023-02-22T07:45:25;139.77;;;35.75;;
40787;SDS011;26497;52.494;7.546;2023-02-22T07:47:54;197.30;;;41.70;;
40787;SDS011;26497;52.494;7.546;2023-02-22T07:50:24;133.50;;;36.67;;
40787;SDS011;26497;52.494;7.546;2023-02-22T07:52:54;166.50;;;40.03;;
40787;SDS011;26497;52.494;7.546;2023-02-22T07:55:24;136.45;;;38.58;;
40787;SDS011;26497;52.494;7.546;2023-02-22T07:57:53;166.13;;;39.08;;
40787;SDS011;26497;52.494;7.546;2023-02-22T08:00:26;153.50;;;37.03;;
40787;SDS011;26497;52.494;7.546;2023-02-22T08:02:54;130.07;;;35.30;;
40787;SDS011;26497;52.494;7.546;2023-02-22T08:05:24;121.22;;;35.63;;
40787;SDS011;26497;52.494;7.546;2023-02-22T08:07:53;129.40;;;31.60;;
40787;SDS011;26497;52.494;7.546;2023-02-22T08:10:21;132.27;;;33.38;;
40787;SDS011;26497;52.494;7.546;2023-02-22T08:12:49;124.05;;;34.03;;
40787;SDS011;26497;52.494;7.546;2023-02-22T08:15:18;129.20;;;32.15;;
40787;SDS011;26497;52.494;7.546;2023-02-22T08:17:48;103.45;;;31.20;;
40787;SDS011;26497;52.494;7.546;2023-02-22T08:20:17;114.07;;;30.15;;
40787;SDS011;26497;52.494;7.546;2023-02-22T08:22:46;130.52;;;33.28;;
40787;SDS011;26497;52.494;7.546;2023-02-22T08:25:15;112.75;;;30.83;;
40787;SDS011;26497;52.494;7.546;2023-02-22T08:27:44;112.15;;;28.80;;
40787;SDS011;26497;52.494;7.546;2023-02-22T08:30:18;101.07;;;28.85;;
40787;SDS011;26497;52.494;7.546;2023-02-22T08:32:47;104.65;;;29.45;;
40787;SDS011;26497;52.494;7.546;2023-02-22T08:35:16;109.88;;;31.58;;
40787;SDS011;26497;52.494;7.546;2023-02-22T08:37:47;81.90;;;25.95;;
40787;SDS011;26497;52.494;7.546;2023-02-22T08:40:17;91.90;;;26.40;;
40787;SDS011;26497;52.494;7.546;2023-02-22T08:42:47;87.73;;;29.37;;
40787;SDS011;26497;52.494;7.546;2023-02-22T08:45:15;85.38;;;28.02;;
40787;SDS011;26497;52.494;7.546;2023-02-22T08:47:42;96.35;;;28.55;;
40787;SDS011;26497;52.494;7.546;2023-02-22T08:50:13;90.30;;;27.63;;
40787;SDS011;26497;52.494;7.546;2023-02-22T08:52:43;83.43;;;27.63;;
40787;SDS011;26497;52.494;7.546;2023-02-22T08:55:11;72.57;;;25.27;;
40787;SDS011;26497;52.494;7.546;2023-02-22T08:57:39;92.50;;;27.42;;
40787;SDS011;26497;52.494;7.546;2023-02-22T09:00:06;79.13;;;25.38;;
40787;SDS011;26497;52.494;7.546;2023-02-22T09:02:34;73.32;;;23.52;;
40787;SDS011;26497;52.494;7.546;2023-02-22T09:05:01;73.82;;;24.17;;
40787;SDS011;26497;52.494;7.546;2023-02-22T09:07:32;63.10;;;23.95;;
40787;SDS011;26497;52.494;7.546;2023-02-22T09:10:00;66.60;;;23.70;;
40787;SDS011;26497;52.494;7.546;2023-02-22T09:12:28;65.57;;;22.88;;
40787;SDS011;26497;52.494;7.546;2023-02-22T09:14:55;67.30;;;22.65;;
40787;SDS011;26497;52.494;7.546;2023-02-22T09:17:23;57.47;;;19.80;;
40787;SDS011;26497;52.494;7.546;2023-02-22T09:19:50;61.95;;;21.95;;
40787;SDS011;26497;52.494;7.546;2023-02-22T09:22:17;48.92;;;18.60;;
40787;SDS011;26497;52.494;7.546;2023-02-22T09:24:44;48.92;;;19.40;;
40787;SDS011;26497;52.494;7.546;2023-02-22T09:27:11;51.97;;;20.02;;
40787;SDS011;26497;52.494;7.546;2023-02-22T09:29:40;51.55;;;18.42;;
40787;SDS011;26497;52.494;7.546;2023-02-22T09:32:07;40.35;;;17.83;;
40787;SDS011;26497;52.494;7.546;2023-02-22T09:34:34;46.63;;;16.85;;
40787;SDS011;26497;52.494;7.546;2023-02-22T09:37:01;46.25;;;18.80;;
40787;SDS011;26497;52.494;7.546;2023-02-22T09:39:29;46.78;;;18.65;;
40787;SDS011;26497;52.494;7.546;2023-02-22T09:42:02;49.28;;;19.88;;
40787;SDS011;26497;52.494;7.546;2023-02-22T09:44:38;39.88;;;16.70;;
40787;SDS011;26497;52.494;7.546;2023-02-22T09:47:14;41.15;;;17.30;;
40787;SDS011;26497;52.494;7.546;2023-02-22T09:49:47;36.57;;;14.90;;
40787;SDS011;26497;52.494;7.546;2023-02-22T09:52:24;34.35;;;15.52;;
40787;SDS011;26497;52.494;7.546;2023-02-22T09:55:00;38.65;;;17.48;;
40787;SDS011;26497;52.494;7.546;2023-02-22T09:57:36;38.25;;;16.65;;
40787;SDS011;26497;52.494;7.546;2023-02-22T10:00:13;34.97;;;15.80;;
40787;SDS011;26497;52.494;7.546;2023-02-22T10:02:46;34.60;;;15.68;;
40787;SDS011;26497;52.494;7.546;2023-02-22T10:05:20;33.45;;;14.25;;
40787;SDS011;26497;52.494;7.546;2023-02-22T10:07:53;36.15;;;15.55;;
40787;SDS011;26497;52.494;7.546;2023-02-22T10:10:30;34.47;;;16.75;;
40787;SDS011;26497;52.494;7.546;2023-02-22T10:13:03;39.10;;;15.77;;
40787;SDS011;26497;52.494;7.546;2023-02-22T10:15:46;30.55;;;13.25;;
40787;SDS011;26497;52.494;7.546;2023-02-22T10:18:31;34.28;;;14.88;;
40787;SDS011;26497;52.494;7.546;2023-02-22T10:21:17;30.88;;;14.65;;
40787;SDS011;26497;52.494;7.546;2023-02-22T10:24:14;30.55;;;13.48;;
40787;SDS011;26497;52.494;7.546;2023-02-22T10:26:54;25.67;;;12.13;;
40787;SDS011;26497;52.494;7.546;2023-02-22T10:29:26;28.10;;;12.68;;
40787;SDS011;26497;52.494;7.546;2023-02-22T10:32:02;27.60;;;12.40;;
40787;SDS011;26497;52.494;7.546;2023-02-22T10:34:32;25.65;;;13.50;;
40787;SDS011;26497;52.494;7.546;2023-02-22T10:37:10;26.05;;;11.93;;
40787;SDS011;26497;52.494;7.546;2023-02-22T10:39:50;55.42;;;50.40;;
40787;SDS011;26497;52.494;7.546;2023-02-22T10:42:24;27.52;;;12.95;;
40787;SDS011;26497;52.494;7.546;2023-02-22T10:44:53;27.48;;;12.88;;
40787;SDS011;26497;52.494;7.546;2023-02-22T10:47:21;24.23;;;11.38;;
40787;SDS011;26497;52.494;7.546;2023-02-22T10:49:50;19.40;;;11.93;;
40787;SDS011;26497;52.494;7.546;2023-02-22T10:52:23;25.75;;;12.25;;
40787;SDS011;26497;52.494;7.546;2023-02-22T10:54:53;24.25;;;13.18;;
40787;SDS011;26497;52.494;7.546;2023-02-22T10:57:24;19.38;;;11.32;;
40787;SDS011;26497;52.494;7.546;2023-02-22T10:59:54;24.83;;;12.90;;
40787;SDS011;26497;52.494;7.546;2023-02-22T11:02:26;23.38;;;11.52;;
40787;SDS011;26497;52.494;7.546;2023-02-22T11:04:57;19.45;;;11.00;;
40787;SDS011;26497;52.494;7.546;2023-02-22T11:07:28;20.70;;;11.23;;
40787;SDS011;26497;52.494;7.546;2023-02-22T11:09:57;22.50;;;11.68;;
40787;SDS011;26497;52.494;7.546;2023-02-22T11:12:27;19.40;;;10.52;;
40787;SDS011;26497;52.494;7.546;2023-02-22T11:14:57;24.02;;;12.25;;
40787;SDS011;26497;52.494;7.546;2023-02-22T11:17:54;20.08;;;11.73;;
40787;SDS011;26497;52.494;7.546;2023-02-22T11:20:25;22.70;;;12.35;;
40787;SDS011;26497;52.494;7.546;2023-02-22T11:22:58;20.25;;;11.43;;
40787;SDS011;26497;52.494;7.546;2023-02-22T11:25:29;22.92;;;13.05;;
40787;SDS011;26497;52.494;7.546;2023-02-22T11:28:05;26.25;;;12.95;;
40787;SDS011;26497;52.494;7.546;2023-02-22T11:30:36;21.88;;;12.15;;
40787;SDS011;26497;52.494;7.546;2023-02-22T11:33:17;24.40;;;12.63;;
40787;SDS011;26497;52.494;7.546;2023-02-22T11:35:49;17.80;;;10.85;;
40787;SDS011;26497;52.494;7.546;2023-02-22T11:38:19;21.50;;;11.13;;
40787;SDS011;26497;52.494;7.546;2023-02-22T11:43:40;19.27;;;11.90;;
40787;SDS011;26497;52.494;7.546;2023-02-22T11:46:10;17.77;;;9.95;;
40787;SDS011;26497;52.494;7.546;2023-02-22T11:48:41;19.77;;;11.10;;
40787;SDS011;26497;52.494;7.546;2023-02-22T11:51:22;22.98;;;12.27;;
40787;SDS011;26497;52.494;7.546;2023-02-22T11:54:08;22.45;;;10.70;;
40787;SDS011;26497;52.494;7.546;2023-02-22T11:57:07;17.67;;;9.73;;
40787;SDS011;26497;52.494;7.546;2023-02-22T12:00:06;20.77;;;10.70;;
40787;SDS011;26497;52.494;7.546;2023-02-22T12:02:53;16.90;;;10.00;;
40787;SDS011;26497;52.494;7.546;2023-02-22T12:06:05;17.15;;;9.25;;
40787;SDS011;26497;52.494;7.546;2023-02-22T12:08:47;17.13;;;9.93;;
40787;SDS011;26497;52.494;7.546;2023-02-22T12:11:26;17.58;;;9.95;;
40787;SDS011;26497;52.494;7.546;2023-02-22T12:14:08;15.50;;;10.05;;
40787;SDS011;26497;52.494;7.546;2023-02-22T12:16:52;22.52;;;10.32;;
40787;SDS011;26497;52.494;7.546;2023-02-22T12:19:38;21.85;;;10.60;;
40787;SDS011;26497;52.494;7.546;2023-02-22T12:22:11;19.27;;;9.53;;
40787;SDS011;26497;52.494;7.546;2023-02-22T12:24:44;17.65;;;9.45;;
40787;SDS011;26497;52.494;7.546;2023-02-22T12:27:18;19.85;;;10.43;;
40787;SDS011;26497;52.494;7.546;2023-02-22T12:29:52;17.40;;;9.32;;
40787;SDS011;26497;52.494;7.546;2023-02-22T12:32:26;20.33;;;9.70;;
40787;SDS011;26497;52.494;7.546;2023-02-22T12:35:00;16.15;;;9.70;;
40787;SDS011;26497;52.494;7.546;2023-02-22T12:37:42;19.65;;;11.07;;
40787;SDS011;26497;52.494;7.546;2023-02-22T12:40:19;17.45;;;10.27;;
40787;SDS011;26497;52.494;7.546;2023-02-22T12:42:52;18.73;;;11.05;;
40787;SDS011;26497;52.494;7.546;2023-02-22T12:45:27;18.20;;;9.75;;
40787;SDS011;26497;52.494;7.546;2023-02-22T12:48:03;17.50;;;9.57;;
40787;SDS011;26497;52.494;7.546;2023-02-22T12:50:51;18.98;;;11.05;;
40787;SDS011;26497;52.494;7.546;2023-02-22T12:53:24;18.05;;;10.65;;
40787;SDS011;26497;52.494;7.546;2023-02-22T12:55:57;25.45;;;12.73;;
40787;SDS011;26497;52.494;7.546;2023-02-22T12:58:42;25.17;;;11.85;;
40787;SDS011;26497;52.494;7.546;2023-02-22T13:01:18;17.38;;;9.77;;
40787;SDS011;26497;52.494;7.546;2023-02-22T13:03:50;21.25;;;9.40;;
40787;SDS011;26497;52.494;7.546;2023-02-22T13:06:23;16.95;;;9.48;;
40787;SDS011;26497;52.494;7.546;2023-02-22T13:09:20;15.93;;;8.85;;
40787;SDS011;26497;52.494;7.546;2023-02-22T13:12:14;19.10;;;9.82;;
40787;SDS011;26497;52.494;7.546;2023-02-22T13:14:49;19.35;;;9.65;;
40787;SDS011;26497;52.494;7.546;2023-02-22T13:17:34;18.48;;;9.25;;
40787;SDS011;26497;52.494;7.546;2023-02-22T13:20:11;17.38;;;9.73;;
40787;SDS011;26497;52.494;7.546;2023-02-22T13:22:44;17.77;;;9.98;;
40787;SDS011;26497;52.494;7.546;2023-02-22T13:25:19;17.13;;;9.75;;
40787;SDS011;26497;52.494;7.546;2023-02-22T13:27:54;19.75;;;11.52;;
40787;SDS011;26497;52.494;7.546;2023-02-22T13:30:28;18.58;;;9.75;;
40787;SDS011;26497;52.494;7.546;2023-02-22T13:33:13;19.70;;;11.05;;
40787;SDS011;26497;52.494;7.546;2023-02-22T13:36:00;12.75;;;8.68;;
40787;SDS011;26497;52.494;7.546;2023-02-22T13:42:10;18.83;;;11.32;;
40787;SDS011;26497;52.494;7.546;2023-02-22T13:44:59;20.10;;;10.27;;
40787;SDS011;26497;52.494;7.546;2023-02-22T13:48:23;17.17;;;10.25;;
40787;SDS011;26497;52.494;7.546;2023-02-22T13:51:12;18.90;;;9.75;;
40787;SDS011;26497;52.494;7.546;2023-02-22T13:53:50;24.00;;;10.43;;
40787;SDS011;26497;52.494;7.546;2023-02-22T13:56:23;18.27;;;10.25;;
40787;SDS011;26497;52.494;7.546;2023-02-22T13:58:54;18.95;;;10.40;;
40787;SDS011;26497;52.494;7.546;2023-02-22T14:01:43;20.58;;;10.68;;
40787;SDS011;26497;52.494;7.546;2023-02-22T14:04:19;21.27;;;10.68;;
40787;SDS011;26497;52.494;7.546;2023-02-22T14:13:12;19.23;;;10.43;;
40787;SDS011;26497;52.494;7.546;2023-02-22T14:18:48;17.08;;;9.63;;
40787;SDS011;26497;52.494;7.546;2023-02-22T14:21:26;20.85;;;11.23;;
40787;SDS011;26497;52.494;7.546;2023-02-22T14:23:54;17.85;;;10.20;;
40787;SDS011;26497;52.494;7.546;2023-02-22T14:26:30;16.88;;;9.48;;
40787;SDS011;26497;52.494;7.546;2023-02-22T14:29:00;20.77;;;10.70;;
40787;SDS011;26497;52.494;7.546;2023-02-22T14:31:55;44.33;;;18.00;;
40787;SDS011;26497;52.494;7.546;2023-02-22T14:34:38;24.70;;;12.73;;
40787;SDS011;26497;52.494;7.546;2023-02-22T14:37:17;20.27;;;9.75;;
40787;SDS011;26497;52.494;7.546;2023-02-22T14:39:49;20.58;;;10.60;;
40787;SDS011;26497;52.494;7.546;2023-02-22T14:42:23;19.67;;;9.65;;
40787;SDS011;26497;52.494;7.546;2023-02-22T14:44:58;19.25;;;11.05;;
40787;SDS011;26497;52.494;7.546;2023-02-22T14:47:35;23.20;;;10.73;;
40787;SDS011;26497;52.494;7.546;2023-02-22T14:50:12;23.63;;;11.98;;
40787;SDS011;26497;52.494;7.546;2023-02-22T14:52:47;16.10;;;9.75;;
40787;SDS011;26497;52.494;7.546;2023-02-22T14:55:25;21.73;;;12.18;;
40787;SDS011;26497;52.494;7.546;2023-02-22T14:57:57;23.30;;;11.25;;
40787;SDS011;26497;52.494;7.546;2023-02-22T15:00:36;19.42;;;10.18;;
40787;SDS011;26497;52.494;7.546;2023-02-22T15:03:10;17.92;;;11.05;;
40787;SDS011;26497;52.494;7.546;2023-02-22T15:05:44;23.75;;;12.65;;
40787;SDS011;26497;52.494;7.546;2023-02-22T15:08:12;22.17;;;11.55;;
40787;SDS011;26497;52.494;7.546;2023-02-22T15:10:42;28.42;;;11.15;;
40787;SDS011;26497;52.494;7.546;2023-02-22T15:13:16;20.73;;;11.98;;